Time;durP1;ratioP1;P1;durP2;ratioP2;P2;SDS_P1;SDS_P2;PMS_P1;PMS_P2;Temp;Humidity;BMP_temperature;BMP_pressure;BME280_temperature;BME280_humidity;BME280_pressure;Samples;Min_cycle;Max_cycle;Signal;HPM_P1;HPM_P2
2020/12/19 00:01:11;;;;;;;112.23;42.70;;;;;;;1.79;70.32;100143.34;251828;1137;115717;-64
2020/12/19 00:06:13;;;;;;;91.00;45.03;;;;;;;1.80;70.37;100152.98;252002;1134;115338;-63
2020/12/19 00:11:16;;;;;;;90.97;44.37;;;;;;;1.86;70.61;100144.16;251479;1132;115456;-63
2020/12/19 00:16:18;;;;;;;94.80;42.93;;;;;;;1.92;70.35;100138.86;251885;1133;114771;-65
2020/12/19 00:21:21;;;;;;;91.73;45.13;;;;;;;1.95;70.39;100136.21;251795;1136;115938;-64
2020/12/19 00:26:31;;;;;;;92.17;45.77;;;;;;;1.99;70.51;100144.92;252164;1133;115586;-62
2020/12/19 00:31:34;;;;;;;87.83;41.37;;;;;;;2.01;70.46;100137.92;251801;1134;115235;-63
2020/12/19 00:36:37;;;;;;;99.73;42.97;;;;;;;1.98;70.43;100153.70;251927;1133;116166;-63
2020/12/19 00:41:39;;;;;;;83.30;41.50;;;;;;;1.89;70.28;100166.00;251898;1137;115394;-63
2020/12/19 00:46:42;;;;;;;87.80;44.63;;;;;;;1.87;70.39;100161.67;251855;1134;115300;-66
2020/12/19 00:51:44;;;;;;;87.83;42.43;;;;;;;1.79;70.35;100153.84;252215;1135;115430;-64
2020/12/19 00:56:47;;;;;;;80.87;36.70;;;;;;;1.75;70.22;100146.88;251918;1134;115818;-63
2020/12/19 01:01:49;;;;;;;87.43;40.70;;;;;;;1.74;70.17;100141.66;252023;1134;115110;-63
2020/12/19 01:06:51;;;;;;;83.20;40.38;;;;;;;1.68;70.57;100150.44;251798;1133;115013;-63
2020/12/19 01:11:54;;;;;;;90.80;41.77;;;;;;;1.62;70.51;100164.47;251966;1134;115366;-64
2020/12/19 01:16:56;;;;;;;85.53;40.63;;;;;;;1.61;70.10;100165.36;251910;1133;115402;-64
2020/12/19 01:21:58;;;;;;;90.70;40.03;;;;;;;1.60;70.80;100160.14;251899;1133;116961;-64
2020/12/19 01:27:00;;;;;;;86.33;43.50;;;;;;;1.56;70.42;100159.30;250939;1135;115390;-63
2020/12/19 01:32:03;;;;;;;81.75;43.05;;;;;;;1.61;70.80;100156.63;251847;1134;114998;-63
2020/12/19 01:37:05;;;;;;;97.03;44.77;;;;;;;1.67;70.86;100146.09;251601;1135;115527;-63
2020/12/19 01:42:07;;;;;;;97.05;44.35;;;;;;;1.67;70.60;100139.97;251882;1135;115621;-64
2020/12/19 01:47:12;;;;;;;90.30;44.20;;;;;;;1.67;70.63;100129.48;251983;1134;115318;-63
2020/12/19 01:52:18;;;;;;;82.92;40.58;;;;;;;1.66;70.99;100133.83;251780;1134;115499;-63
2020/12/19 01:57:28;;;;;;;80.72;41.53;;;;;;;1.67;70.71;100129.48;251962;1134;114691;-62
2020/12/19 02:02:30;;;;;;;67.67;37.20;;;;;;;1.68;70.71;100124.20;251807;1134;115933;-64
2020/12/19 02:07:34;;;;;;;81.43;39.10;;;;;;;1.59;70.33;100122.52;251900;1133;115929;-63
2020/12/19 02:12:36;;;;;;;78.93;36.63;;;;;;;1.52;70.34;100114.71;251927;1137;115635;-63
2020/12/19 02:17:39;;;;;;;76.00;36.57;;;;;;;1.50;70.92;100113.88;251191;1135;115567;-61
2020/12/19 02:22:42;;;;;;;76.47;36.40;;;;;;;1.45;70.86;100105.16;252026;1134;115341;-62
2020/12/19 02:27:44;;;;;;;77.27;36.93;;;;;;;1.40;70.93;100095.58;252046;1135;117110;-62
2020/12/19 02:32:46;;;;;;;82.10;39.83;;;;;;;1.38;70.94;100101.70;251953;1135;115339;-64
2020/12/19 02:37:49;;;;;;;77.37;40.23;;;;;;;1.42;70.58;100101.66;251907;1135;114704;-63
2020/12/19 02:42:52;;;;;;;83.03;40.27;;;;;;;1.47;71.29;100099.02;252013;1134;116273;-62
2020/12/19 02:47:55;;;;;;;92.72;36.08;;;;;;;1.44;71.10;100091.17;251850;1134;115407;-62
2020/12/19 02:52:57;;;;;;;96.93;40.63;;;;;;;1.36;70.39;100079.89;251014;1134;115201;-64
2020/12/19 02:57:59;;;;;;;79.23;39.73;;;;;;;1.35;71.13;100097.34;251505;1135;115206;-62
2020/12/19 03:03:02;;;;;;;87.47;39.30;;;;;;;1.34;70.54;100077.27;251850;1133;115362;-63
2020/12/19 03:08:04;;;;;;;92.87;44.03;;;;;;;1.36;70.99;100072.89;251798;1134;115307;-62
2020/12/19 03:13:06;;;;;;;85.47;39.87;;;;;;;1.43;71.34;100073.71;250897;1135;115089;-64
2020/12/19 03:18:08;;;;;;;86.83;38.73;;;;;;;1.41;70.60;100075.46;250599;1134;115668;-64
2020/12/19 03:23:11;;;;;;;81.00;40.67;;;;;;;1.42;71.53;100069.33;251956;1134;115175;-63
2020/12/19 03:28:13;;;;;;;75.20;37.10;;;;;;;1.43;70.75;100065.84;251869;1134;115512;-62
2020/12/19 03:33:16;;;;;;;82.67;36.13;;;;;;;1.42;71.25;100053.59;251844;1135;115266;-62
2020/12/19 03:38:18;;;;;;;85.03;39.10;;;;;;;1.36;70.78;100044.05;251865;1134;115338;-62
2020/12/19 03:43:20;;;;;;;82.03;37.53;;;;;;;1.34;70.71;100045.80;251789;1133;115474;-61
2020/12/19 03:48:23;;;;;;;77.97;38.00;;;;;;;1.31;70.76;100035.33;250191;1135;115159;-63
2020/12/19 03:53:25;;;;;;;66.90;36.43;;;;;;;1.32;71.24;100029.19;250711;1135;115178;-64
2020/12/19 03:58:27;;;;;;;77.03;35.40;;;;;;;1.33;71.54;100035.34;251906;1134;114945;-64
2020/12/19 04:03:29;;;;;;;77.25;35.83;;;;;;;1.32;70.74;100028.33;252075;1133;115313;-63
2020/12/19 04:08:32;;;;;;;65.43;34.63;;;;;;;1.35;70.94;100029.17;251130;1134;115457;-62
2020/12/19 04:13:34;;;;;;;77.20;36.07;;;;;;;1.38;71.37;100025.66;249352;1134;115117;-64
2020/12/19 04:18:37;;;;;;;79.17;36.07;;;;;;;1.40;71.01;100029.16;251792;1134;115131;-63
2020/12/19 04:23:39;;;;;;;68.00;34.37;;;;;;;1.38;70.87;100031.77;251212;1133;115332;-63
2020/12/19 04:28:42;;;;;;;75.25;34.78;;;;;;;1.40;71.29;100018.66;251806;1135;114701;-63
2020/12/19 04:33:44;;;;;;;73.87;35.57;;;;;;;1.40;71.50;100016.91;251782;1135;115480;-63
2020/12/19 04:38:46;;;;;;;62.70;33.03;;;;;;;1.46;70.81;100015.98;252025;1134;115088;-63
2020/12/19 04:43:49;;;;;;;68.60;33.17;;;;;;;1.50;70.87;100019.45;251920;1135;116156;-63
2020/12/19 04:48:52;;;;;;;72.67;34.87;;;;;;;1.48;71.02;100019.45;251765;1135;115225;-64
2020/12/19 04:53:55;;;;;;;73.00;34.05;;;;;;;1.46;71.16;100021.23;251948;1135;115394;-63
2020/12/19 04:59:00;;;;;;;67.40;33.23;;;;;;;1.47;70.97;100028.20;252027;1135;116960;-63
2020/12/19 05:04:03;;;;;;;72.30;32.73;;;;;;;1.47;70.74;100024.72;250195;1134;115805;-66
2020/12/19 05:09:05;;;;;;;77.67;35.40;;;;;;;1.47;71.07;100029.97;248617;1135;116180;-63
2020/12/19 05:14:08;;;;;;;64.13;33.93;;;;;;;1.52;70.56;100023.77;252102;1136;115203;-62
2020/12/19 05:19:11;;;;;;;70.50;33.67;;;;;;;1.56;70.82;100030.75;252031;1135;115042;-62
2020/12/19 05:24:15;;;;;;;67.13;32.17;;;;;;;1.57;70.65;100029.00;251957;1135;115246;-62
2020/12/19 05:29:18;;;;;;;60.78;31.70;;;;;;;1.56;70.49;100032.48;251696;1133;115558;-61
2020/12/19 05:34:22;;;;;;;65.00;31.33;;;;;;;1.53;70.67;100020.29;251691;1134;115113;-62
2020/12/19 05:39:24;;;;;;;61.67;32.57;;;;;;;1.53;70.48;100024.64;251912;1135;115388;-63
2020/12/19 05:44:26;;;;;;;66.45;32.28;;;;;;;1.52;70.63;100023.77;251947;1134;115922;-64
2020/12/19 05:49:29;;;;;;;59.63;30.60;;;;;;;1.52;71.29;100023.77;251906;1134;115468;-65
2020/12/19 05:54:36;;;;;;;57.13;28.63;;;;;;;1.53;70.64;100029.88;251976;1133;116190;-64
2020/12/19 05:59:38;;;;;;;70.47;29.97;;;;;;;1.51;70.79;100031.67;250976;1134;115177;-63
2020/12/19 06:04:42;;;;;;;59.60;29.67;;;;;;;1.47;70.49;100038.70;251799;1135;115132;-64
2020/12/19 06:09:44;;;;;;;66.35;31.02;;;;;;;1.42;70.10;100043.97;251809;1134;115086;-65
2020/12/19 06:14:52;;;;;;;56.90;29.03;;;;;;;1.41;70.29;100050.10;252113;1133;115098;-65
2020/12/19 06:19:55;;;;;;;63.50;30.97;;;;;;;1.37;70.90;100058.02;251799;1136;115308;-65
2020/12/19 06:24:58;;;;;;;54.23;29.97;;;;;;;1.36;70.30;100041.42;252052;1135;115172;-63
2020/12/19 06:30:02;;;;;;;55.10;28.37;;;;;;;1.38;70.11;100057.13;251736;1136;115072;-64
2020/12/19 06:35:10;;;;;;;54.42;29.80;;;;;;;1.39;70.55;100048.37;251965;1134;115302;-65
2020/12/19 06:40:17;;;;;;;54.70;30.33;;;;;;;1.38;70.33;100055.37;249312;1137;115160;-63
2020/12/19 06:45:29;;;;;;;59.90;31.20;;;;;;;1.36;70.75;100069.41;251892;1136;115406;-64
2020/12/19 06:51:04;;;;;;;59.50;30.47;;;;;;;1.30;70.26;100075.55;251945;1134;114662;-63
2020/12/19 06:56:26;;;;;;;61.53;31.23;;;;;;;1.30;70.58;100072.93;249477;1135;115133;-66
2020/12/19 07:01:29;;;;;;;61.28;31.30;;;;;;;1.28;70.50;100084.30;251967;1135;115192;-65
2020/12/19 07:06:31;;;;;;;61.87;31.87;;;;;;;1.28;70.53;100084.30;251936;1133;115231;-63
2020/12/19 07:11:33;;;;;;;62.95;31.25;;;;;;;1.22;70.59;100084.34;251873;1134;114762;-64
2020/12/19 07:16:49;;;;;;;61.33;30.73;;;;;;;1.17;70.59;100084.39;250177;1135;116703;-64
2020/12/19 07:21:54;;;;;;;57.27;27.47;;;;;;;1.10;70.63;100080.94;249181;1135;115167;-63
2020/12/19 07:26:57;;;;;;;63.35;33.15;;;;;;;1.06;70.66;100092.33;251960;1134;114861;-62
2020/12/19 07:32:00;;;;;;;67.43;34.20;;;;;;;1.06;70.17;100086.22;251848;1135;115318;-62
2020/12/19 07:37:03;;;;;;;74.23;35.63;;;;;;;1.13;70.78;100091.41;251998;1133;114705;-63
2020/12/19 07:42:09;;;;;;;79.17;35.30;;;;;;;1.24;70.81;100085.22;251859;1134;115134;-64
2020/12/19 07:47:13;;;;;;;73.97;34.27;;;;;;;1.28;70.47;100086.92;251684;1134;115131;-63
2020/12/19 07:52:26;;;;;;;72.95;34.58;;;;;;;1.32;70.71;100086.02;251812;1134;115305;-63
2020/12/19 07:57:30;;;;;;;60.60;30.47;;;;;;;1.37;70.97;100089.48;251906;1134;115292;-65
2020/12/19 08:02:36;;;;;;;66.82;32.45;;;;;;;1.45;70.39;100081.55;251816;1135;115576;-62
2020/12/19 08:07:38;;;;;;;63.80;32.83;;;;;;;1.48;71.05;100090.27;251323;1135;115020;-65
2020/12/19 08:12:41;;;;;;;66.83;33.00;;;;;;;1.51;70.74;100085.00;251504;1135;115272;-64
2020/12/19 08:17:51;;;;;;;75.23;34.93;;;;;;;1.54;70.19;100076.23;249385;1133;115999;-66
2020/12/19 08:23:02;;;;;;;65.57;32.20;;;;;;;1.52;70.52;100070.98;251583;1135;115825;-64
2020/12/19 08:28:05;;;;;;;66.07;32.50;;;;;;;1.46;70.76;100076.31;251899;1133;115543;-66
2020/12/19 08:33:08;;;;;;;63.30;31.43;;;;;;;1.46;70.96;100075.41;251906;1134;115876;-63
2020/12/19 08:38:24;;;;;;;67.33;29.97;;;;;;;1.45;70.52;100077.17;251916;1133;115541;-64
2020/12/19 08:43:33;;;;;;;70.57;31.70;;;;;;;1.43;71.06;100081.58;251883;1134;115333;-62
2020/12/19 08:48:36;;;;;;;67.90;31.13;;;;;;;1.40;70.40;100086.84;251813;1136;115787;-63
2020/12/19 08:53:38;;;;;;;75.90;34.93;;;;;;;1.40;70.74;100079.84;251896;1134;115507;-62
2020/12/19 08:58:41;;;;;;;68.23;32.37;;;;;;;1.47;71.03;100075.42;251966;1134;115111;-64
2020/12/19 09:03:44;;;;;;;80.50;33.30;;;;;;;1.49;71.03;100068.39;251414;1133;115676;-63
2020/12/19 09:08:48;;;;;;;64.53;32.25;;;;;;;1.54;71.37;100061.36;252026;1133;115010;-64
2020/12/19 09:14:03;;;;;;;;;;;;;;;1.56;71.02;100059.61;250262;1135;115711;-65
2020/12/19 09:19:12;;;;;;;67.97;31.87;;;;;;;1.55;71.05;100055.22;252071;1133;102027;-64
2020/12/19 09:24:15;;;;;;;64.20;32.45;;;;;;;1.48;70.86;100053.55;251940;1133;115759;-64
2020/12/19 09:29:18;;;;;;;69.17;29.07;;;;;;;1.46;70.92;100043.94;251944;1134;114906;-63
2020/12/19 09:34:20;;;;;;;58.08;29.48;;;;;;;1.41;70.58;100047.48;251905;1133;115802;-63
2020/12/19 09:39:22;;;;;;;62.73;30.30;;;;;;;1.41;71.05;100039.61;251955;1139;115535;-62
2020/12/19 09:44:24;;;;;;;58.30;29.70;;;;;;;1.45;70.73;100045.70;251934;1133;115147;-63
2020/12/19 09:49:26;;;;;;;56.90;28.80;;;;;;;1.46;71.15;100038.70;251927;1135;115194;-65
2020/12/19 09:54:29;;;;;;;58.27;28.47;;;;;;;1.47;70.79;100046.56;250599;1134;115251;-63
2020/12/19 09:59:31;;;;;;;55.58;28.20;;;;;;;1.53;71.15;100040.37;251916;1134;115043;-62
2020/12/19 10:04:33;;;;;;;54.30;27.47;;;;;;;1.57;70.91;100035.11;251824;1134;114841;-62
2020/12/19 10:09:36;;;;;;;60.93;30.90;;;;;;;1.55;70.69;100038.62;251981;1134;115163;-63
2020/12/19 10:14:38;;;;;;;62.27;30.23;;;;;;;1.53;70.39;100030.78;252043;1135;116056;-65
2020/12/19 10:19:40;;;;;;;56.30;28.27;;;;;;;1.55;70.74;100030.75;251791;1135;115269;-62
2020/12/19 10:24:42;;;;;;;57.53;28.42;;;;;;;1.55;71.00;100036.00;252085;1140;115682;-64
2020/12/19 10:29:45;;;;;;;60.20;30.50;;;;;;;1.58;71.00;100031.59;251879;1132;115187;-64
2020/12/19 10:34:48;;;;;;;68.28;32.03;;;;;;;1.63;70.68;100019.31;251971;1135;115442;-62
2020/12/19 10:39:50;;;;;;;61.93;29.30;;;;;;;1.71;70.97;100015.73;251883;1135;115180;-61
2020/12/19 10:44:53;;;;;;;61.07;30.47;;;;;;;1.78;70.66;100018.27;251976;1133;114905;-65
2020/12/19 10:49:55;;;;;;;66.15;31.02;;;;;;;1.84;71.01;100017.35;251848;1136;114857;-64
2020/12/19 10:54:58;;;;;;;63.30;31.33;;;;;;;1.93;71.12;100009.35;251783;1135;115389;-65
2020/12/19 11:00:05;;;;;;;68.47;33.20;;;;;;;1.98;71.21;100004.07;250941;1134;115549;-64
2020/12/19 11:05:08;;;;;;;70.17;35.30;;;;;;;2.05;71.38;100011.84;251984;1133;115585;-64
2020/12/19 11:10:10;;;;;;;72.80;33.93;;;;;;;2.15;71.51;100002.11;251849;1134;115732;-66
2020/12/19 11:15:12;;;;;;;76.92;35.30;;;;;;;2.25;71.44;99998.48;251770;1134;115723;-64
2020/12/19 11:20:15;;;;;;;67.30;33.93;;;;;;;2.35;71.18;99999.23;251921;1133;115334;-64
2020/12/19 11:25:17;;;;;;;77.00;34.67;;;;;;;2.44;71.12;100006.97;251937;1134;114978;-63
2020/12/19 11:30:20;;;;;;;72.83;33.67;;;;;;;2.52;71.42;100004.27;251832;1134;115033;-64
2020/12/19 11:35:22;;;;;;;68.23;31.57;;;;;;;2.56;71.44;100000.70;250541;1134;115431;-65
2020/12/19 11:40:24;;;;;;;70.10;33.48;;;;;;;2.54;70.89;99994.58;251606;1134;115163;-67
2020/12/19 11:45:27;;;;;;;82.93;35.57;;;;;;;2.57;71.10;99991.91;251824;1134;115506;-63
2020/12/19 11:50:29;;;;;;;72.03;33.97;;;;;;;2.56;70.71;100000.70;251900;1136;115275;-64
2020/12/19 11:55:31;;;;;;;81.10;34.80;;;;;;;2.57;71.11;99989.29;251952;1135;115098;-64
2020/12/19 12:00:34;;;;;;;66.87;33.57;;;;;;;3.43;73.89;99978.28;251833;1135;115828;-64
2020/12/19 12:05:36;;;;;;;74.42;34.08;;;;;;;3.53;70.63;99985.11;251850;1134;114925;-62
2020/12/19 12:10:38;;;;;;;69.27;33.17;;;;;;;3.44;70.38;99981.78;250471;1134;115311;-64
2020/12/19 12:15:41;;;;;;;71.63;34.80;;;;;;;3.28;70.04;99979.40;252098;1135;115025;-66
2020/12/19 12:20:44;;;;;;;68.07;35.20;;;;;;;3.11;69.82;99970.06;252014;1133;115191;-63
2020/12/19 12:25:47;;;;;;;77.13;34.40;;;;;;;2.98;69.89;99961.50;251988;1135;114771;-62
2020/12/19 12:30:49;;;;;;;69.73;35.20;;;;;;;2.89;70.18;99969.53;251887;1133;115779;-65
2020/12/19 12:35:52;;;;;;;80.00;37.23;;;;;;;2.82;70.39;99964.39;252048;1133;115122;-63
2020/12/19 12:40:54;;;;;;;77.60;36.40;;;;;;;2.83;70.66;99960.00;252121;1135;114728;-63
2020/12/19 12:45:56;;;;;;;81.33;38.40;;;;;;;2.83;70.55;99963.48;251877;1135;115149;-62
2020/12/19 12:50:59;;;;;;;73.47;34.63;;;;;;;2.84;70.87;99956.47;251343;1133;115678;-64
2020/12/19 12:56:02;;;;;;;75.30;36.58;;;;;;;2.86;70.58;99959.95;250872;1134;115480;-66
2020/12/19 13:01:04;;;;;;;75.17;36.27;;;;;;;2.81;70.75;99951.26;251749;1135;115236;-64
2020/12/19 13:06:07;;;;;;;74.30;35.10;;;;;;;2.75;70.43;99956.60;251902;1134;115110;-65
2020/12/19 13:11:09;;;;;;;74.83;35.40;;;;;;;2.69;70.49;99954.09;252120;1135;117065;-64
2020/12/19 13:16:11;;;;;;;82.00;38.23;;;;;;;2.64;70.65;99953.28;252083;1135;114566;-66
2020/12/19 13:21:14;;;;;;;83.60;38.13;;;;;;;2.66;70.48;99951.52;252265;1133;114918;-65
2020/12/19 13:26:17;;;;;;;84.97;40.70;;;;;;;2.65;70.54;99953.27;251906;1134;115321;-64
2020/12/19 13:31:19;;;;;;;89.27;41.33;;;;;;;2.67;70.97;99953.23;251989;1135;114940;-65
2020/12/19 13:36:21;;;;;;;92.40;40.87;;;;;;;2.71;70.79;99957.55;252033;1133;114949;-63
2020/12/19 13:41:24;;;;;;;77.57;36.33;;;;;;;2.70;70.96;99950.56;252094;1134;115248;-64
2020/12/19 13:46:26;;;;;;;79.67;37.50;;;;;;;2.70;70.72;99958.45;252067;1135;114804;-62
2020/12/19 13:51:35;;;;;;;83.57;38.47;;;;;;;2.68;70.85;99961.08;251941;1132;114778;-65
2020/12/19 13:56:40;;;;;;;91.28;41.23;;;;;;;2.64;70.84;99964.66;251993;1134;115258;-65
2020/12/19 14:01:45;;;;;;;89.53;39.43;;;;;;;2.66;70.83;99960.26;252077;1133;115220;-66
2020/12/19 14:06:47;;;;;;;87.17;38.90;;;;;;;2.66;70.75;99962.02;252027;1133;114848;-64
2020/12/19 14:11:54;;;;;;;83.45;39.03;;;;;;;2.64;70.98;99969.05;251779;1134;114601;-66
2020/12/19 14:17:01;;;;;;;75.13;35.03;;;;;;;2.62;70.66;99963.83;251892;1135;115070;-63
2020/12/19 14:22:03;;;;;;;79.40;35.43;;;;;;;2.59;70.84;99959.48;251738;1133;114945;-64
2020/12/19 14:27:05;;;;;;;76.90;37.93;;;;;;;2.55;70.75;99965.67;251947;1134;119513;-62
2020/12/19 14:32:08;;;;;;;78.03;36.47;;;;;;;2.52;70.93;99968.34;252003;1135;114568;-64
2020/12/19 14:37:10;;;;;;;83.35;39.85;;;;;;;2.50;70.84;99970.11;251828;1135;114899;-67
2020/12/19 14:42:12;;;;;;;81.20;37.67;;;;;;;2.51;70.86;99970.98;251853;1134;115283;-64
2020/12/19 14:47:15;;;;;;;76.50;37.38;;;;;;;2.52;70.89;99970.97;252089;1134;116813;-64
2020/12/19 14:52:17;;;;;;;74.67;34.83;;;;;;;2.53;70.73;99970.08;251734;1135;114974;-66
2020/12/19 14:57:19;;;;;;;79.90;36.60;;;;;;;2.50;71.07;99978.00;252027;1133;115177;-64
2020/12/19 15:02:22;;;;;;;74.90;33.63;;;;;;;2.48;70.60;99978.90;251868;1134;114946;-63
2020/12/19 15:07:24;;;;;;;73.97;34.37;;;;;;;2.41;70.66;99993.01;251798;1134;114877;-64
2020/12/19 15:12:27;;;;;;;76.10;37.35;;;;;;;2.35;70.77;99986.97;251848;1134;116581;-63
2020/12/19 15:17:29;;;;;;;70.07;34.40;;;;;;;2.29;70.82;100000.17;251443;1135;115977;-63
2020/12/19 15:22:31;;;;;;;81.00;36.35;;;;;;;2.25;70.96;99993.23;252104;1133;115085;-63
2020/12/19 15:27:33;;;;;;;71.60;35.28;;;;;;;2.28;71.01;99995.82;252024;1134;115291;-63
2020/12/19 15:32:36;;;;;;;76.07;36.03;;;;;;;2.29;70.48;99992.30;251963;1135;115110;-63
2020/12/19 15:37:38;;;;;;;69.27;34.37;;;;;;;2.32;71.06;99984.38;251961;1135;115064;-64
2020/12/19 15:42:40;;;;;;;77.93;35.53;;;;;;;2.29;70.97;99992.30;251927;1135;115119;-63
2020/12/19 15:47:43;;;;;;;68.93;33.37;;;;;;;2.22;70.81;99993.27;251744;1135;116486;-67
2020/12/19 15:52:58;;;;;;;87.25;36.25;;;;;;;2.18;70.95;99996.83;249728;1135;115409;-65
2020/12/19 15:58:01;;;;;;;77.80;36.73;;;;;;;2.13;70.63;99991.61;251797;1134;115233;-64
2020/12/19 16:03:03;;;;;;;74.83;35.90;;;;;;;2.14;70.83;99982.00;251926;1134;114895;-63
2020/12/19 16:08:05;;;;;;;74.90;36.67;;;;;;;2.16;71.60;99984.59;252024;1135;115080;-62
2020/12/19 16:13:08;;;;;;;68.77;34.90;;;;;;;2.19;71.05;99976.68;251926;1134;115153;-63
2020/12/19 16:18:10;;;;;;;72.32;36.35;;;;;;;2.19;71.13;99976.68;251675;1134;116001;-64
2020/12/19 16:23:13;;;;;;;75.77;36.13;;;;;;;2.18;71.13;99977.58;251803;1133;115128;-65
2020/12/19 16:28:15;;;;;;;68.20;32.87;;;;;;;2.15;71.01;99969.73;251780;1134;114479;-65
2020/12/19 16:33:17;;;;;;;74.27;33.37;;;;;;;2.08;70.84;99984.70;252015;1135;115079;-63
2020/12/19 16:38:20;;;;;;;76.27;35.23;;;;;;;2.11;71.29;99985.53;251914;1135;114750;-66
2020/12/19 16:43:25;;;;;;;82.43;35.17;;;;;;;2.13;71.02;99988.98;251886;1135;115797;-66
2020/12/19 16:48:28;;;;;;;75.23;35.97;;;;;;;2.18;71.26;99986.32;251769;1134;114880;-66
2020/12/19 16:53:30;;;;;;;68.23;32.80;;;;;;;2.17;71.20;99989.81;251974;1134;114871;-64
2020/12/19 16:58:32;;;;;;;71.30;34.20;;;;;;;2.09;71.01;99987.29;251743;1133;115213;-64
2020/12/19 17:03:35;;;;;;;74.95;32.10;;;;;;;2.05;71.13;99996.09;251831;1135;115313;-65
2020/12/19 17:08:37;;;;;;;81.47;35.33;;;;;;;1.97;71.06;99995.33;251819;1135;114786;-64
2020/12/19 17:13:39;;;;;;;71.07;35.13;;;;;;;1.98;71.36;99983.07;251943;1135;115059;-66
2020/12/19 17:18:42;;;;;;;88.87;33.13;;;;;;;1.97;71.13;99982.20;251891;1133;115165;-65
2020/12/19 17:23:44;;;;;;;75.70;35.13;;;;;;;1.97;71.56;99987.45;252084;1134;114991;-64
2020/12/19 17:28:48;;;;;;;77.63;36.10;;;;;;;2.03;71.73;99989.98;252161;1133;115007;-65
2020/12/19 17:33:51;;;;;;;78.42;37.40;;;;;;;2.05;71.20;99988.22;251925;1135;114933;-62
2020/12/19 17:38:55;;;;;;;80.93;38.67;;;;;;;2.06;71.43;99992.58;251827;1134;115967;-62
2020/12/19 17:43:58;;;;;;;78.57;37.60;;;;;;;2.08;71.35;99998.69;251834;1135;115295;-66
2020/12/19 17:49:00;;;;;;;84.97;39.27;;;;;;;2.09;71.28;99994.30;251900;1135;115036;-64
2020/12/19 17:54:03;;;;;;;80.00;39.23;;;;;;;2.10;71.33;99986.39;251805;1134;115183;-66
2020/12/19 17:59:06;;;;;;;77.25;39.42;;;;;;;2.14;71.28;99992.50;251852;1135;115281;-67
2020/12/19 18:04:08;;;;;;;88.67;40.33;;;;;;;2.16;71.01;99979.34;251805;1135;115270;-63
2020/12/19 18:09:10;;;;;;;79.63;38.83;;;;;;;2.17;71.28;99986.32;251805;1133;116172;-64
2020/12/19 18:14:13;;;;;;;83.13;37.93;;;;;;;2.12;71.39;99986.39;251786;1134;115031;-67
2020/12/19 18:19:15;;;;;;;84.23;37.90;;;;;;;2.10;70.99;99991.64;251786;1135;115512;-65
2020/12/19 18:24:19;;;;;;;82.78;40.12;;;;;;;2.07;71.31;99988.19;252100;1133;115019;-63
2020/12/19 18:29:23;;;;;;;79.35;37.05;;;;;;;2.11;71.05;99997.79;251833;1134;115825;-64
2020/12/19 18:34:26;;;;;;;78.17;36.45;;;;;;;2.13;70.90;100002.11;251944;1135;115235;-63
2020/12/19 18:39:29;;;;;;;74.57;37.10;;;;;;;2.12;71.31;99992.50;251866;1135;114756;-64
2020/12/19 18:44:31;;;;;;;76.13;36.90;;;;;;;2.11;71.12;99997.79;251780;1132;115195;-64
2020/12/19 18:49:34;;;;;;;79.57;37.77;;;;;;;2.08;71.03;99985.56;251775;1135;115258;-67
2020/12/19 18:54:39;;;;;;;89.23;37.67;;;;;;;2.02;71.03;99979.52;252060;1134;114919;-65
2020/12/19 18:59:43;;;;;;;87.87;38.27;;;;;;;2.00;71.35;99991.78;252012;1135;115085;-67
2020/12/19 19:04:46;;;;;;;81.45;38.42;;;;;;;2.03;70.93;99987.36;251709;1134;115555;-67
2020/12/19 19:09:49;;;;;;;93.93;39.63;;;;;;;2.07;71.16;99988.19;251724;1135;115253;-65
2020/12/19 19:14:51;;;;;;;92.45;38.83;;;;;;;2.04;71.08;99990.88;251888;1135;115499;-65
2020/12/19 19:19:54;;;;;;;91.40;38.83;;;;;;;1.99;71.29;99998.79;251845;1134;115074;-65
2020/12/19 19:24:56;;;;;;;82.43;39.03;;;;;;;2.00;71.36;99989.16;252104;1134;115083;-67
2020/12/19 19:30:00;;;;;;;84.87;41.03;;;;;;;1.99;71.08;99988.29;251902;1135;115112;-67
2020/12/19 19:35:02;;;;;;;86.23;39.57;;;;;;;2.01;71.36;99985.66;251749;1135;115567;-64
2020/12/19 19:40:05;;;;;;;91.42;40.78;;;;;;;2.01;71.32;99993.54;251965;1135;115293;-66
2020/12/19 19:45:10;;;;;;;86.43;38.47;;;;;;;2.03;71.50;100004.88;252126;1135;115215;-65
2020/12/19 19:50:13;;;;;;;96.20;41.63;;;;;;;2.02;71.40;100004.01;251911;1135;115418;-68
2020/12/19 19:55:15;;;;;;;94.65;39.10;;;;;;;2.04;71.47;100004.01;251562;1134;117219;-64
2020/12/19 20:00:18;;;;;;;92.40;37.77;;;;;;;1.99;71.48;100000.55;251837;1134;115322;-65
2020/12/19 20:05:20;;;;;;;87.80;35.88;;;;;;;1.92;71.35;100002.38;252024;1134;115067;-63
2020/12/19 20:10:22;;;;;;;93.57;39.00;;;;;;;1.86;71.46;99997.19;251934;1135;114865;-67
2020/12/19 20:15:24;;;;;;;81.37;35.40;;;;;;;1.87;72.10;99993.70;252018;1135;115902;-65
2020/12/19 20:20:27;;;;;;;89.07;37.40;;;;;;;1.86;72.10;100000.67;252037;1135;116583;-64
2020/12/19 20:25:29;;;;;;;76.87;37.47;;;;;;;1.97;72.07;100018.06;252047;1134;115144;-65
2020/12/19 20:30:31;;;;;;;88.27;35.73;;;;;;;1.98;71.85;100012.81;251999;1135;114915;-64
2020/12/19 20:35:34;;;;;;;75.67;34.17;;;;;;;1.99;71.87;100004.04;252087;1142;114751;-63
2020/12/19 20:40:36;;;;;;;84.13;36.25;;;;;;;1.99;71.87;100014.54;251960;1134;115344;-65
2020/12/19 20:45:38;;;;;;;93.03;38.10;;;;;;;2.00;72.10;100016.27;251952;1135;116264;-67
2020/12/19 20:50:40;;;;;;;84.47;39.03;;;;;;;2.08;72.21;100014.44;251965;1134;115343;-65
2020/12/19 20:55:43;;;;;;;85.87;38.70;;;;;;;2.14;72.22;100016.14;251810;1135;115021;-66
2020/12/19 21:00:45;;;;;;;80.87;37.47;;;;;;;2.21;72.12;100023.05;251877;1134;115195;-64
2020/12/19 21:05:48;;;;;;;77.60;35.93;;;;;;;2.18;71.86;100019.59;251726;1135;115810;-62
2020/12/19 21:10:55;;;;;;;74.00;34.90;;;;;;;2.15;72.00;100017.00;251885;1134;114731;-64
2020/12/19 21:15:57;;;;;;;84.63;37.83;;;;;;;2.15;71.92;100024.88;251945;1135;114734;-65
2020/12/19 21:20:59;;;;;;;86.08;38.60;;;;;;;2.19;72.05;100023.95;251700;1134;115846;-64
2020/12/19 21:26:02;;;;;;;76.40;37.60;;;;;;;2.20;72.08;100036.18;251938;1134;115540;-63
2020/12/19 21:31:04;;;;;;;74.97;35.17;;;;;;;2.23;71.85;100038.77;251927;1135;115488;-64
2020/12/19 21:36:07;;;;;;;81.33;34.77;;;;;;;2.17;72.04;100039.70;251917;1134;115100;-64
2020/12/19 21:41:09;;;;;;;83.67;35.80;;;;;;;2.15;71.92;100040.63;251923;1135;115386;-64
2020/12/19 21:46:11;;;;;;;71.67;32.40;;;;;;;2.12;71.98;100046.78;252065;1135;116510;-67
2020/12/19 21:51:14;;;;;;;71.80;34.13;;;;;;;2.10;72.00;100038.91;252032;1134;116010;-64
2020/12/19 21:56:17;;;;;;;71.03;32.67;;;;;;;2.10;71.93;100049.41;252008;1135;115180;-65
2020/12/19 22:01:20;;;;;;;74.87;31.57;;;;;;;2.08;71.67;100051.20;251914;1135;115330;-63
2020/12/19 22:06:23;;;;;;;65.07;32.50;;;;;;;2.06;71.89;100045.08;252096;1135;114961;-64
2020/12/19 22:11:27;;;;;;;65.78;31.10;;;;;;;2.05;72.25;100053.85;252205;1134;115398;-65
2020/12/19 22:16:29;;;;;;;68.70;32.97;;;;;;;2.01;72.03;100059.17;251925;1135;114811;-64
2020/12/19 22:21:31;;;;;;;88.87;30.47;;;;;;;1.98;72.03;100064.45;251999;1135;115166;-63
2020/12/19 22:26:34;;;;;;;67.60;31.67;;;;;;;2.00;71.95;100073.16;252069;1133;115533;-63
2020/12/19 22:31:36;;;;;;;64.30;31.37;;;;;;;2.02;71.96;100067.01;251804;1134;115525;-67
2020/12/19 22:36:38;;;;;;;67.05;30.62;;;;;;;1.99;71.49;100061.79;252060;1135;115567;-65
2020/12/19 22:41:50;;;;;;;61.57;30.10;;;;;;;1.96;72.04;100059.20;252026;1134;116188;-65
2020/12/19 22:46:53;;;;;;;61.37;27.82;;;;;;;1.97;71.74;100068.83;251902;1135;115190;-64